createdAt,value
2023-04-29T00:02:19.203Z,100.00
2023-04-29T00:04:45.902Z,100.00
2023-04-29T00:07:15.478Z,100.00
2023-04-29T00:09:42.162Z,100.00
2023-04-29T00:12:10.228Z,100.00
2023-04-29T00:14:37.030Z,100.00
2023-04-29T00:17:04.117Z,100.00
2023-04-29T00:19:31.358Z,100.00
2023-04-29T00:21:57.838Z,100.00
2023-04-29T00:24:24.404Z,100.00
2023-04-29T00:26:50.880Z,100.00
2023-04-29T00:29:18.628Z,100.00
2023-04-29T00:31:45.316Z,100.00
2023-04-29T00:34:12.002Z,100.00
2023-04-29T00:36:38.540Z,100.00
2023-04-29T00:39:05.090Z,100.00
2023-04-29T00:41:32.648Z,100.00
2023-04-29T00:43:59.415Z,100.00
2023-04-29T00:46:26.010Z,100.00
2023-04-29T00:48:52.558Z,100.00
2023-04-29T00:51:19.163Z,100.00
2023-04-29T00:53:47.016Z,100.00
2023-04-29T00:56:15.896Z,100.00
2023-04-29T00:58:49.754Z,100.00
2023-04-29T01:01:16.855Z,100.00
2023-04-29T01:03:43.616Z,100.00
2023-04-29T01:06:31.697Z,100.00
2023-04-29T01:09:13.300Z,100.00
2023-04-29T01:12:01.737Z,100.00
2023-04-29T01:14:28.366Z,100.00
2023-04-29T01:17:00.642Z,100.00
2023-04-29T01:19:56.158Z,100.00
2023-04-29T01:22:23.129Z,100.00
2023-04-29T01:24:50.043Z,100.00
2023-04-29T01:27:16.602Z,100.00
2023-04-29T01:29:45.976Z,100.00
2023-04-29T01:32:24.448Z,100.00
2023-04-29T01:35:20.508Z,100.00
2023-04-29T01:37:56.345Z,100.00
2023-04-29T01:40:27.984Z,100.00
2023-04-29T01:43:08.154Z,100.00
2023-04-29T01:45:38.232Z,100.00
2023-04-29T01:48:05.188Z,100.00
2023-04-29T01:50:32.695Z,100.00
2023-04-29T01:52:59.302Z,100.00
2023-04-29T01:55:26.018Z,100.00
2023-04-29T01:57:52.576Z,100.00
2023-04-29T02:00:19.174Z,100.00
2023-04-29T02:02:45.795Z,100.00
2023-04-29T02:05:12.371Z,100.00
2023-04-29T02:07:39.927Z,100.00
2023-04-29T02:10:06.989Z,100.00
2023-04-29T02:12:33.495Z,100.00
2023-04-29T02:15:00.449Z,100.00
2023-04-29T02:17:26.976Z,100.00
2023-04-29T02:19:55.180Z,100.00
2023-04-29T02:22:22.089Z,100.00
2023-04-29T02:24:48.588Z,100.00
2023-04-29T02:27:15.068Z,100.00
2023-04-29T02:29:41.682Z,100.00
2023-04-29T02:32:08.325Z,100.00
2023-04-29T02:34:34.890Z,100.00
2023-04-29T02:37:01.616Z,100.00
2023-04-29T02:39:28.220Z,100.00
2023-04-29T02:41:56.355Z,100.00
2023-04-29T02:44:22.857Z,100.00
2023-04-29T02:46:49.338Z,100.00
2023-04-29T02:49:15.894Z,100.00
2023-04-29T02:51:42.479Z,100.00
2023-04-29T02:54:08.938Z,100.00
2023-04-29T02:56:35.461Z,100.00
2023-04-29T02:59:01.933Z,100.00
2023-04-29T03:01:29.116Z,100.00
2023-04-29T03:03:55.838Z,100.00
2023-04-29T03:06:22.565Z,100.00
2023-04-29T03:08:49.072Z,100.00
2023-04-29T03:11:15.848Z,100.00
2023-04-29T03:13:42.394Z,100.00
2023-04-29T03:16:08.923Z,100.00
2023-04-29T03:18:35.461Z,100.00
2023-04-29T03:21:04.384Z,100.00
2023-04-29T03:23:30.927Z,100.00
2023-04-29T03:25:57.617Z,100.00
2023-04-29T03:28:24.187Z,100.00
2023-04-29T03:30:50.644Z,100.00
2023-04-29T03:33:17.274Z,100.00
2023-04-29T03:35:43.972Z,100.00
2023-04-29T03:38:10.468Z,100.00
2023-04-29T03:40:37.412Z,100.00
2023-04-29T03:43:03.921Z,100.00
2023-04-29T03:45:30.618Z,100.00
2023-04-29T03:47:57.142Z,100.00
2023-04-29T03:50:23.864Z,100.00
2023-04-29T03:52:50.443Z,100.00
2023-04-29T03:55:17.237Z,100.00
2023-04-29T03:57:44.091Z,100.00
2023-04-29T04:00:11.205Z,100.00
2023-04-29T04:02:37.897Z,100.00
2023-04-29T04:05:04.821Z,100.00
2023-04-29T04:07:31.351Z,100.00
2023-04-29T04:09:57.895Z,100.00
2023-04-29T04:12:24.434Z,100.00
2023-04-29T04:14:51.472Z,100.00
2023-04-29T04:17:18.040Z,100.00
2023-04-29T04:19:44.502Z,100.00
2023-04-29T04:22:12.953Z,100.00
2023-04-29T04:24:39.592Z,100.00
2023-04-29T04:27:07.123Z,100.00
2023-04-29T04:29:33.610Z,100.00
2023-04-29T04:32:00.501Z,100.00
2023-04-29T04:34:27.210Z,100.00
2023-04-29T04:36:53.685Z,100.00
2023-04-29T04:39:20.172Z,100.00
2023-04-29T04:41:46.609Z,100.00
2023-04-29T04:44:14.241Z,100.00
2023-04-29T04:46:40.755Z,100.00
2023-04-29T04:49:07.762Z,100.00
2023-04-29T04:51:34.302Z,100.00
2023-04-29T04:54:00.891Z,100.00
2023-04-29T04:56:27.445Z,100.00
2023-04-29T04:58:53.928Z,100.00
2023-04-29T05:01:20.685Z,100.00
2023-04-29T05:03:47.400Z,100.00
2023-04-29T05:06:14.088Z,100.00
2023-04-29T05:08:40.603Z,100.00
2023-04-29T05:11:07.119Z,100.00
2023-04-29T05:13:34.397Z,100.00
2023-04-29T05:16:06.210Z,100.00
2023-04-29T05:18:33.123Z,100.00
2023-04-29T05:21:00.047Z,100.00
2023-04-29T05:23:26.548Z,100.00
2023-04-29T05:25:53.142Z,100.00
2023-04-29T05:28:19.736Z,100.00
2023-04-29T05:30:47.386Z,100.00
2023-04-29T05:33:13.897Z,100.00
2023-04-29T05:35:40.422Z,100.00
2023-04-29T05:38:07.324Z,100.00
2023-04-29T05:40:33.831Z,100.00
2023-04-29T05:43:00.330Z,100.00
2023-04-29T05:45:26.838Z,100.00
2023-04-29T05:47:53.444Z,100.00
2023-04-29T05:50:19.948Z,100.00
2023-04-29T05:52:46.623Z,100.00
2023-04-29T05:55:13.188Z,100.00
2023-04-29T05:57:40.162Z,100.00
2023-04-29T06:00:07.694Z,100.00
2023-04-29T06:02:37.374Z,100.00
2023-04-29T06:05:06.733Z,100.00
2023-04-29T06:07:33.329Z,100.00
2023-04-29T06:09:59.904Z,100.00
2023-04-29T06:12:26.382Z,100.00
2023-04-29T06:14:52.897Z,100.00
2023-04-29T06:17:19.351Z,100.00
2023-04-29T06:19:45.826Z,100.00
2023-04-29T06:22:12.487Z,100.00
2023-04-29T06:24:38.974Z,100.00
2023-04-29T06:27:05.696Z,100.00
2023-04-29T06:29:32.310Z,100.00
2023-04-29T06:31:58.791Z,100.00
2023-04-29T06:34:25.338Z,100.00
2023-04-29T06:36:51.995Z,100.00
2023-04-29T06:39:18.539Z,100.00
2023-04-29T06:41:45.052Z,100.00
2023-04-29T06:44:12.082Z,100.00
2023-04-29T06:46:39.228Z,100.00
2023-04-29T06:49:07.084Z,100.00
2023-04-29T06:51:33.696Z,100.00
2023-04-29T06:54:00.202Z,100.00
2023-04-29T06:56:26.893Z,100.00
2023-04-29T06:58:53.448Z,100.00
2023-04-29T07:01:20.150Z,100.00
2023-04-29T07:03:47.010Z,100.00
2023-04-29T07:06:13.740Z,100.00
2023-04-29T07:08:40.236Z,100.00
2023-04-29T07:11:06.804Z,100.00
2023-04-29T07:13:33.518Z,100.00
2023-04-29T07:16:00.350Z,100.00
2023-04-29T07:18:26.903Z,100.00
2023-04-29T07:20:53.453Z,100.00
2023-04-29T07:23:20.068Z,100.00
2023-04-29T07:25:46.575Z,100.00
2023-04-29T07:28:13.179Z,100.00
2023-04-29T07:30:39.734Z,100.00
2023-04-29T07:33:06.399Z,100.00
2023-04-29T07:35:33.232Z,100.00
2023-04-29T07:37:59.792Z,100.00
2023-04-29T07:40:29.105Z,100.00
2023-04-29T07:42:55.750Z,100.00
2023-04-29T07:45:22.361Z,98.88
2023-04-29T07:47:48.952Z,95.16
2023-04-29T07:50:24.321Z,92.21
2023-04-29T07:56:37.884Z,91.76
2023-04-29T07:59:04.418Z,99.12
2023-04-29T08:09:52.869Z,75.11
2023-04-29T08:12:19.446Z,77.94
2023-04-29T08:14:45.946Z,72.84
2023-04-29T08:17:12.437Z,68.28
2023-04-29T08:19:38.933Z,56.74
2023-04-29T08:22:05.726Z,49.22
2023-04-29T08:24:33.719Z,44.53
2023-04-29T08:27:00.259Z,41.83
2023-04-29T08:29:26.786Z,39.02
2023-04-29T08:31:53.447Z,37.80
2023-04-29T08:34:20.038Z,37.90
2023-04-29T08:36:46.538Z,36.73
2023-04-29T08:46:55.879Z,51.38
2023-04-29T08:49:22.516Z,55.08
2023-04-29T08:51:51.620Z,48.28
2023-04-29T08:54:18.308Z,46.62
2023-04-29T08:56:49.609Z,52.83
2023-04-29T08:59:18.167Z,51.86
2023-04-29T09:01:52.875Z,54.08
2023-04-29T09:04:54.996Z,53.09
2023-04-29T09:07:22.974Z,42.13
2023-04-29T09:09:51.051Z,48.81
2023-04-29T09:12:18.612Z,43.87
2023-04-29T09:14:45.255Z,44.88
2023-04-29T09:17:11.888Z,49.64
2023-04-29T09:19:38.457Z,44.30
2023-04-29T09:22:08.224Z,47.65
2023-04-29T09:24:35.397Z,49.94
2023-04-29T09:27:03.484Z,44.85
2023-04-29T09:29:31.990Z,36.04
2023-04-29T09:31:58.925Z,32.81
2023-04-29T09:34:41.050Z,30.40
2023-04-29T09:37:28.185Z,36.90
2023-04-29T09:39:55.166Z,41.49
2023-04-29T09:42:21.728Z,43.81
2023-04-29T09:44:48.576Z,41.05
2023-04-29T09:47:15.184Z,36.26
2023-04-29T09:49:45.457Z,33.27
2023-04-29T09:52:20.875Z,31.58
2023-04-29T09:54:47.357Z,32.70
2023-04-29T09:57:15.824Z,33.16
2023-04-29T09:59:43.484Z,37.87
2023-04-29T10:02:18.700Z,41.46
2023-04-29T10:04:47.480Z,39.83
2023-04-29T10:07:16.707Z,38.87
2023-04-29T10:09:44.169Z,36.32
2023-04-29T10:12:11.136Z,37.28
2023-04-29T10:14:44.713Z,36.99
2023-04-29T10:17:24.283Z,36.04
2023-04-29T10:20:08.049Z,40.72
2023-04-29T10:22:49.137Z,38.27
2023-04-29T10:25:17.218Z,40.33
2023-04-29T10:27:44.595Z,38.48
2023-04-29T10:30:16.154Z,40.02
2023-04-29T10:35:20.049Z,37.25
2023-04-29T10:37:48.848Z,38.57
2023-04-29T10:40:36.742Z,40.69
2023-04-29T10:43:04.654Z,43.92
2023-04-29T10:45:37.706Z,45.93
2023-04-29T10:48:06.907Z,48.32
2023-04-29T10:50:35.522Z,37.32
2023-04-29T10:53:03.445Z,32.68
2023-04-29T10:55:31.243Z,28.89
2023-04-29T10:57:58.157Z,30.38
2023-04-29T11:00:29.260Z,24.06
2023-04-29T11:03:00.927Z,25.49
2023-04-29T11:05:37.561Z,22.73
2023-04-29T11:08:16.445Z,23.84
2023-04-29T11:10:43.953Z,29.12
2023-04-29T11:13:30.812Z,35.12
2023-04-29T11:16:08.069Z,39.59
2023-04-29T11:18:36.552Z,38.83
2023-04-29T11:21:06.063Z,32.70
2023-04-29T11:23:36.491Z,27.10
2023-04-29T11:30:35.457Z,24.82
2023-04-29T11:33:02.200Z,29.46
2023-04-29T11:35:28.811Z,27.66
2023-04-29T11:37:55.379Z,30.82
2023-04-29T11:40:21.852Z,31.04
2023-04-29T11:42:49.737Z,27.66
2023-04-29T11:45:19.808Z,23.92
2023-04-29T11:47:47.929Z,26.16
2023-04-29T11:50:20.306Z,30.09
2023-04-29T11:52:48.457Z,35.09
2023-04-29T11:55:15.223Z,38.01
2023-04-29T11:57:41.954Z,40.33
2023-04-29T12:00:11.766Z,37.95
2023-04-29T12:02:38.459Z,32.41
2023-04-29T12:05:08.855Z,31.34
2023-04-29T12:07:37.000Z,31.24
2023-04-29T12:10:03.849Z,30.70
2023-04-29T12:12:34.896Z,27.87
2023-04-29T12:15:03.126Z,25.61
2023-04-29T12:17:30.112Z,25.40
2023-04-29T12:19:57.237Z,23.71
2023-04-29T12:22:30.837Z,23.85
2023-04-29T12:24:57.469Z,23.32
2023-04-29T12:27:24.238Z,25.68
2023-04-29T12:29:52.730Z,25.90
2023-04-29T12:32:23.172Z,24.89
2023-04-29T12:34:51.236Z,22.86
2023-04-29T12:37:18.295Z,23.68
2023-04-29T12:39:44.874Z,21.88
2023-04-29T12:42:18.191Z,21.03
2023-04-29T12:44:48.510Z,21.88
2023-04-29T12:47:16.302Z,22.33
2023-04-29T12:49:44.910Z,23.73
2023-04-29T12:52:11.887Z,23.25
2023-04-29T12:54:44.834Z,27.63
2023-04-29T12:57:12.237Z,25.43
2023-04-29T12:59:40.878Z,23.49
2023-04-29T13:02:07.811Z,25.85
2023-04-29T13:04:34.630Z,29.08
2023-04-29T13:07:01.379Z,31.52
2023-04-29T13:09:28.084Z,33.20
2023-04-29T13:11:54.608Z,35.88
2023-04-29T13:14:22.332Z,36.86
2023-04-29T13:16:49.294Z,39.21
2023-04-29T13:19:30.453Z,40.15
2023-04-29T13:22:02.481Z,40.50
2023-04-29T13:24:28.972Z,40.10
2023-04-29T13:26:55.450Z,41.56
2023-04-29T13:29:21.988Z,39.15
2023-04-29T13:31:48.581Z,40.11
2023-04-29T13:34:15.209Z,40.25
2023-04-29T13:36:41.763Z,40.80
2023-04-29T13:39:08.512Z,41.94
2023-04-29T13:41:35.616Z,41.99
2023-04-29T13:44:02.676Z,41.53
2023-04-29T13:46:31.440Z,42.49
2023-04-29T13:49:17.428Z,42.06
2023-04-29T13:52:26.301Z,42.44
2023-04-29T13:57:55.265Z,43.38
2023-04-29T13:59:53.386Z,43.06
2023-04-29T14:04:49.748Z,41.90
2023-04-29T14:07:16.772Z,41.86
2023-04-29T14:09:43.364Z,42.54
2023-04-29T14:12:10.677Z,41.82
2023-04-29T14:14:37.147Z,43.11
2023-04-29T14:17:03.798Z,41.77
2023-04-29T14:19:31.434Z,41.13
2023-04-29T14:21:57.947Z,41.75
2023-04-29T14:24:24.457Z,41.57
2023-04-29T14:26:52.294Z,42.30
2023-04-29T14:29:19.207Z,43.29
2023-04-29T14:31:45.890Z,44.44
2023-04-29T14:34:13.431Z,45.94
2023-04-29T14:36:41.090Z,45.50
2023-04-29T14:39:08.452Z,46.98
2023-04-29T14:41:34.989Z,47.08
2023-04-29T14:44:01.590Z,46.94
2023-04-29T14:46:29.013Z,47.10
2023-04-29T14:48:56.145Z,46.97
2023-04-29T14:51:22.721Z,46.40
2023-04-29T14:53:49.212Z,47.32
2023-04-29T14:56:18.953Z,47.98
2023-04-29T14:58:45.415Z,47.65
2023-04-29T15:01:12.103Z,47.72
2023-04-29T15:06:07.993Z,47.46
2023-04-29T15:08:34.915Z,46.91
2023-04-29T15:11:01.414Z,46.76
2023-04-29T15:13:29.392Z,46.76
2023-04-29T15:15:57.169Z,48.28
2023-04-29T15:18:26.348Z,47.64
2023-04-29T15:20:53.707Z,47.96
2023-04-29T15:23:20.416Z,49.05
2023-04-29T15:25:47.019Z,50.84
2023-04-29T15:28:13.583Z,50.97
2023-04-29T15:30:40.121Z,50.84
2023-04-29T15:33:06.728Z,50.77
2023-04-29T15:35:34.763Z,51.56
2023-04-29T15:38:01.296Z,51.71
2023-04-29T15:40:27.840Z,52.16
2023-04-29T15:42:54.383Z,53.18
2023-04-29T15:45:21.183Z,53.63
2023-04-29T15:47:47.981Z,53.66
2023-04-29T15:50:14.563Z,52.54
2023-04-29T15:52:41.082Z,52.51
2023-04-29T15:55:07.924Z,53.34
2023-04-29T15:57:34.857Z,53.96
2023-04-29T16:00:01.555Z,54.79
2023-04-29T16:02:28.322Z,55.60
2023-04-29T16:04:54.843Z,54.25
2023-04-29T16:07:21.328Z,53.57
2023-04-29T16:09:47.883Z,53.87
2023-04-29T16:12:14.442Z,54.54
2023-04-29T16:14:41.150Z,55.51
2023-04-29T16:17:08.079Z,56.86
2023-04-29T16:19:36.835Z,57.58
2023-04-29T16:22:04.420Z,57.76
2023-04-29T16:24:30.983Z,57.61
2023-04-29T16:26:58.885Z,57.66
2023-04-29T16:29:25.871Z,58.27
2023-04-29T16:31:52.505Z,58.91
2023-04-29T16:34:19.994Z,59.13
2023-04-29T16:36:46.535Z,59.45
2023-04-29T16:39:13.061Z,59.69
2023-04-29T16:41:39.577Z,60.05
2023-04-29T16:44:06.103Z,59.36
2023-04-29T16:46:32.757Z,60.24
2023-04-29T16:48:59.524Z,61.12
2023-04-29T16:51:26.485Z,61.60
2023-04-29T16:53:53.505Z,61.64
2023-04-29T16:56:20.104Z,61.90
2023-04-29T16:58:46.585Z,61.96
2023-04-29T17:01:13.170Z,62.44
2023-04-29T17:03:39.827Z,63.64
2023-04-29T17:06:06.520Z,64.29
2023-04-29T17:08:33.132Z,64.87
2023-04-29T17:10:59.658Z,65.05
2023-04-29T17:13:26.414Z,66.07
2023-04-29T17:15:52.983Z,66.12
2023-04-29T17:18:20.203Z,65.85
2023-04-29T17:20:48.677Z,66.74
2023-04-29T17:26:29.260Z,67.65
2023-04-29T17:28:55.755Z,67.71
2023-04-29T17:31:25.477Z,67.87
2023-04-29T17:34:04.995Z,67.93
2023-04-29T17:36:33.092Z,68.12
2023-04-29T17:38:59.748Z,68.65
2023-04-29T17:41:26.266Z,69.46
2023-04-29T17:43:52.782Z,69.62
2023-04-29T17:54:18.594Z,72.12
2023-04-29T17:56:45.165Z,73.03
2023-04-29T17:59:11.881Z,72.82
2023-04-29T18:01:38.683Z,73.23
2023-04-29T18:04:06.151Z,74.80
2023-04-29T18:06:32.983Z,74.81
2023-04-29T18:08:59.517Z,74.68
2023-04-29T18:11:26.138Z,76.70
2023-04-29T18:13:54.165Z,76.44
2023-04-29T18:16:20.927Z,76.88
2023-04-29T18:18:47.436Z,77.94
2023-04-29T18:28:23.065Z,77.84
2023-04-29T18:30:51.767Z,77.85
2023-04-29T18:33:18.489Z,79.18
2023-04-29T18:35:45.100Z,80.51
2023-04-29T18:38:14.208Z,81.33
2023-04-29T18:40:41.160Z,81.95
2023-04-29T19:23:35.966Z,95.10
2023-04-29T19:26:02.458Z,97.44
2023-04-29T19:28:29.024Z,97.74
2023-04-29T19:30:55.550Z,99.64
2023-04-29T19:33:22.119Z,100.00
2023-04-29T19:35:48.587Z,100.00
2023-04-29T19:38:15.145Z,100.00
2023-04-29T19:40:41.668Z,100.00
2023-04-29T19:43:09.146Z,100.00
2023-04-29T19:50:15.678Z,100.00
2023-04-29T19:52:42.244Z,100.00
2023-04-29T19:58:56.932Z,100.00
2023-04-29T20:01:32.910Z,100.00
2023-04-29T20:03:59.523Z,100.00
2023-04-29T20:06:27.192Z,100.00
2023-04-29T20:08:53.875Z,100.00
2023-04-29T20:11:21.091Z,100.00
2023-04-29T20:14:18.171Z,100.00
2023-04-29T20:17:03.247Z,100.00
2023-04-29T20:23:30.674Z,100.00
2023-04-29T20:29:06.472Z,100.00
2023-04-29T20:31:33.168Z,100.00
2023-04-29T20:41:40.626Z,100.00
2023-04-29T20:44:07.729Z,100.00
2023-04-29T20:46:36.619Z,100.00
2023-04-29T21:25:59.568Z,100.00
2023-04-29T21:28:26.112Z,100.00
2023-04-29T21:30:54.864Z,100.00
2023-04-29T22:14:55.457Z,100.00
2023-04-29T22:20:12.808Z,100.00
2023-04-29T22:22:39.872Z,100.00
2023-04-29T22:25:19.797Z,100.00
2023-04-29T22:28:02.417Z,100.00
2023-04-29T22:30:56.861Z,100.00
2023-04-29T22:33:42.497Z,100.00
2023-04-29T22:44:23.863Z,100.00
2023-04-29T22:47:15.300Z,100.00
2023-04-29T22:49:41.953Z,100.00
2023-04-29T22:52:54.134Z,100.00
2023-04-29T22:58:43.772Z,100.00
2023-04-29T23:01:11.977Z,100.00
2023-04-29T23:13:41.768Z,100.00
2023-04-29T23:16:10.720Z,100.00
2023-04-29T23:19:14.444Z,100.00
2023-04-29T23:24:55.371Z,100.00
2023-04-29T23:27:29.418Z,100.00
2023-04-29T23:29:56.212Z,100.00
2023-04-29T23:32:24.431Z,100.00
2023-04-29T23:34:50.968Z,100.00
2023-04-29T23:37:17.601Z,100.00
2023-04-29T23:39:44.291Z,100.00
2023-04-29T23:42:10.952Z,100.00
2023-04-29T23:44:41.631Z,100.00
2023-04-29T23:50:32.742Z,100.00
2023-04-29T23:52:59.357Z,100.00
2023-04-29T23:55:29.390Z,100.00
